Time;durP1;ratioP1;P1;durP2;ratioP2;P2;SDS_P1;SDS_P2;PMS_P1;PMS_P2;Temp;Humidity;BMP_temperature;BMP_pressure;BME280_temperature;BME280_humidity;BME280_pressure;Samples;Min_cycle;Max_cycle;Signal;HPM_P1;HPM_P2
2022/11/20 00:01:20;;;;;;;9.48;5.45;;;;;;;;;;4889742;29;20024;-85
2022/11/20 00:03:46;;;;;;;10.35;5.72;;;;;;;;;;4917699;29;20036;-85
2022/11/20 00:06:14;;;;;;;9.35;5.43;;;;;;;;;;4909946;29;20043;-85
2022/11/20 00:08:40;;;;;;;9.38;5.57;;;;;;;;;;4916738;29;20518;-85
2022/11/20 00:11:07;;;;;;;11.55;5.68;;;;;;;;;;4905627;29;20021;-85
2022/11/20 00:13:33;;;;;;;10.60;6.00;;;;;;;;;;4904930;29;20032;-85
2022/11/20 00:16:00;;;;;;;10.60;5.85;;;;;;;;;;4914321;29;20035;-85
2022/11/20 00:18:26;;;;;;;9.80;5.65;;;;;;;;;;4895095;29;20488;-85
2022/11/20 00:20:52;;;;;;;10.45;6.05;;;;;;;;;;4900378;29;20032;-85
2022/11/20 00:23:18;;;;;;;9.73;5.60;;;;;;;;;;4909394;29;20430;-85
2022/11/20 00:25:43;;;;;;;9.70;6.10;;;;;;;;;;4912713;29;20031;-85
2022/11/20 00:28:08;;;;;;;9.85;5.75;;;;;;;;;;4895207;29;20445;-85
2022/11/20 00:30:33;;;;;;;9.98;5.97;;;;;;;;;;4895787;29;20039;-85
2022/11/20 00:32:59;;;;;;;11.02;5.88;;;;;;;;;;4896309;29;20481;-85
2022/11/20 00:35:24;;;;;;;9.82;5.70;;;;;;;;;;4916762;29;20495;-85
2022/11/20 00:37:50;;;;;;;11.40;6.15;;;;;;;;;;4911901;29;20504;-85
2022/11/20 00:40:15;;;;;;;10.07;5.90;;;;;;;;;;4908611;29;20040;-85
2022/11/20 00:42:40;;;;;;;11.27;5.95;;;;;;;;;;4907215;29;20063;-85
2022/11/20 00:45:06;;;;;;;11.55;6.32;;;;;;;;;;4909296;29;20115;-85
2022/11/20 00:47:32;;;;;;;10.05;5.25;;;;;;;;;;4887900;29;20033;-85
2022/11/20 00:49:57;;;;;;;12.13;6.38;;;;;;;;;;4910678;29;20024;-85
2022/11/20 00:52:22;;;;;;;10.60;6.03;;;;;;;;;;4913019;29;20024;-85
2022/11/20 00:54:48;;;;;;;12.10;6.88;;;;;;;;;;4911117;29;20036;-85
2022/11/20 00:57:13;;;;;;;10.07;6.07;;;;;;;;;;4910979;29;20024;-85
2022/11/20 00:59:38;;;;;;;10.15;5.60;;;;;;;;;;4910006;29;20035;-85
2022/11/20 01:02:04;;;;;;;11.73;6.20;;;;;;;;;;4907053;29;20176;-85
2022/11/20 01:04:29;;;;;;;12.40;6.30;;;;;;;;;;4894405;29;20040;-84
2022/11/20 01:06:54;;;;;;;10.13;5.78;;;;;;;;;;4915187;29;20028;-85
2022/11/20 01:09:20;;;;;;;11.13;5.95;;;;;;;;;;4907100;29;20035;-84
2022/11/20 01:11:45;;;;;;;9.88;5.82;;;;;;;;;;4910093;29;20029;-85
2022/11/20 01:14:14;;;;;;;11.35;5.70;;;;;;;;;;4909069;29;20028;-84
2022/11/20 01:16:42;;;;;;;10.73;5.65;;;;;;;;;;4907258;29;20502;-85
2022/11/20 01:19:11;;;;;;;9.95;5.32;;;;;;;;;;4914055;29;20027;-85
2022/11/20 01:21:39;;;;;;;10.55;5.75;;;;;;;;;;4908325;29;20043;-84
2022/11/20 01:24:07;;;;;;;11.65;6.30;;;;;;;;;;4912314;29;20297;-84
2022/11/20 01:26:35;;;;;;;11.02;5.90;;;;;;;;;;4904454;29;20028;-85
2022/11/20 01:29:03;;;;;;;10.73;6.28;;;;;;;;;;4909672;29;20039;-85
2022/11/20 01:31:34;;;;;;;11.00;6.10;;;;;;;;;;4895949;29;22064;-84
2022/11/20 01:34:05;;;;;;;11.35;6.13;;;;;;;;;;4894530;29;20032;-85
2022/11/20 01:36:32;;;;;;;9.80;5.45;;;;;;;;;;4915065;29;20393;-84
2022/11/20 01:39:05;;;;;;;9.50;5.70;;;;;;;;;;4909140;29;20055;-84
2022/11/20 01:44:18;;;;;;;11.48;6.07;;;;;;;;;;4912437;29;20039;-84
2022/11/20 01:47:03;;;;;;;10.48;6.20;;;;;;;;;;4909543;29;20043;-84
2022/11/20 01:49:37;;;;;;;8.98;5.30;;;;;;;;;;4908648;29;20508;-84
2022/11/20 01:52:11;;;;;;;11.10;5.82;;;;;;;;;;4911515;29;20036;-84
2022/11/20 01:54:43;;;;;;;10.13;5.95;;;;;;;;;;4907422;29;20025;-84
2022/11/20 01:57:12;;;;;;;12.17;6.33;;;;;;;;;;4915412;29;20367;-84
2022/11/20 01:59:45;;;;;;;11.10;5.85;;;;;;;;;;4912430;29;20024;-84
2022/11/20 02:02:10;;;;;;;10.20;5.57;;;;;;;;;;4911423;29;20023;-84
2022/11/20 02:04:36;;;;;;;11.95;6.20;;;;;;;;;;4905781;29;20385;-84
2022/11/20 02:07:04;;;;;;;10.98;6.53;;;;;;;;;;4905098;29;20027;-83
2022/11/20 02:09:30;;;;;;;11.02;6.03;;;;;;;;;;4910970;29;20035;-84
2022/11/20 02:11:56;;;;;;;10.35;6.10;;;;;;;;;;4908424;29;20401;-84
2022/11/20 02:14:22;;;;;;;9.75;5.78;;;;;;;;;;4904943;29;20450;-84
2022/11/20 02:16:49;;;;;;;10.27;6.50;;;;;;;;;;4908533;29;20067;-84
2022/11/20 02:19:29;;;;;;;10.90;6.28;;;;;;;;;;4908696;29;20046;-85
2022/11/20 02:22:18;;;;;;;11.05;6.05;;;;;;;;;;4912094;29;20069;-84
2022/11/20 02:24:45;;;;;;;10.43;6.53;;;;;;;;;;4897007;29;20028;-84
2022/11/20 02:27:13;;;;;;;10.27;5.75;;;;;;;;;;4907645;29;20528;-84
2022/11/20 02:29:47;;;;;;;11.45;5.53;;;;;;;;;;4910440;29;20039;-84
2022/11/20 02:32:20;;;;;;;10.25;5.70;;;;;;;;;;4913165;29;20036;-84
2022/11/20 02:34:45;;;;;;;10.98;5.88;;;;;;;;;;4907042;29;20024;-84
2022/11/20 02:37:11;;;;;;;9.80;5.78;;;;;;;;;;4910964;29;20035;-84
2022/11/20 02:39:36;;;;;;;11.88;5.90;;;;;;;;;;4910469;29;21337;-84
2022/11/20 02:42:02;;;;;;;10.90;6.30;;;;;;;;;;4895560;29;20127;-84
2022/11/20 02:44:27;;;;;;;11.00;6.25;;;;;;;;;;4907412;29;20024;-84
2022/11/20 02:46:52;;;;;;;10.27;6.50;;;;;;;;;;4906952;29;20083;-84
2022/11/20 02:49:18;;;;;;;10.73;6.03;;;;;;;;;;4907288;29;20024;-84
2022/11/20 02:51:44;;;;;;;9.65;5.50;;;;;;;;;;4894684;29;21981;-84
2022/11/20 02:54:09;;;;;;;9.90;5.95;;;;;;;;;;4908626;29;20035;-84
2022/11/20 02:56:37;;;;;;;9.70;5.57;;;;;;;;;;4894524;29;20053;-84
2022/11/20 02:59:02;;;;;;;10.70;5.90;;;;;;;;;;4911420;29;20034;-84
2022/11/20 03:01:27;;;;;;;10.32;5.70;;;;;;;;;;4895375;29;20028;-84
2022/11/20 03:03:54;;;;;;;10.35;5.97;;;;;;;;;;4913855;29;20032;-84
2022/11/20 03:06:20;;;;;;;10.05;6.18;;;;;;;;;;4910197;29;20059;-84
2022/11/20 03:08:45;;;;;;;11.25;5.75;;;;;;;;;;4912083;29;20528;-84
2022/11/20 03:11:10;;;;;;;9.77;5.88;;;;;;;;;;4892183;29;20060;-84
2022/11/20 03:13:36;;;;;;;10.20;5.88;;;;;;;;;;4908915;29;20158;-84
2022/11/20 03:16:10;;;;;;;11.38;6.03;;;;;;;;;;4911587;29;20028;-84
2022/11/20 03:18:35;;;;;;;10.57;5.82;;;;;;;;;;4907853;29;20039;-84
2022/11/20 03:21:00;;;;;;;9.45;5.70;;;;;;;;;;4908109;29;20499;-84
2022/11/20 03:23:25;;;;;;;10.23;5.32;;;;;;;;;;4903043;29;20503;-84
2022/11/20 03:25:51;;;;;;;10.50;5.80;;;;;;;;;;4897103;29;20038;-84
2022/11/20 03:28:16;;;;;;;11.20;6.07;;;;;;;;;;4910412;29;20039;-84
2022/11/20 03:30:42;;;;;;;11.73;5.97;;;;;;;;;;4907876;29;20131;-84
2022/11/20 03:33:07;;;;;;;11.68;6.43;;;;;;;;;;4907039;29;20107;-84
2022/11/20 03:35:32;;;;;;;10.85;6.07;;;;;;;;;;4893084;29;20031;-84
2022/11/20 03:37:58;;;;;;;10.35;5.88;;;;;;;;;;4896854;29;20119;-84
2022/11/20 03:40:23;;;;;;;9.95;5.53;;;;;;;;;;4893345;29;20044;-84
2022/11/20 03:42:48;;;;;;;9.90;5.40;;;;;;;;;;4893671;29;20061;-84
2022/11/20 03:45:16;;;;;;;10.65;6.10;;;;;;;;;;4911194;29;20024;-84
2022/11/20 03:47:41;;;;;;;11.68;5.95;;;;;;;;;;4904562;29;20371;-84
2022/11/20 03:50:08;;;;;;;10.00;5.90;;;;;;;;;;4907037;29;20057;-84
2022/11/20 03:52:33;;;;;;;10.07;5.95;;;;;;;;;;4909652;29;20056;-84
2022/11/20 03:54:59;;;;;;;11.68;6.15;;;;;;;;;;4906617;29;20032;-83
2022/11/20 03:57:24;;;;;;;10.75;6.03;;;;;;;;;;4907166;29;20040;-84
2022/11/20 03:59:49;;;;;;;9.40;5.47;;;;;;;;;;4911718;29;20024;-84
2022/11/20 04:02:15;;;;;;;10.02;5.82;;;;;;;;;;4894674;29;20020;-84
2022/11/20 04:04:40;;;;;;;11.43;6.15;;;;;;;;;;4913924;29;20044;-84
2022/11/20 04:07:05;;;;;;;11.18;5.80;;;;;;;;;;4915356;29;20067;-83
2022/11/20 04:09:31;;;;;;;10.63;5.97;;;;;;;;;;4915736;29;20032;-83
2022/11/20 04:11:56;;;;;;;10.23;5.50;;;;;;;;;;4910558;29;20040;-83
2022/11/20 04:14:22;;;;;;;11.38;5.90;;;;;;;;;;4913373;29;20415;-83
2022/11/20 04:16:47;;;;;;;10.70;5.78;;;;;;;;;;4908457;29;20034;-83
2022/11/20 04:19:15;;;;;;;9.80;5.35;;;;;;;;;;4908451;29;20501;-83
2022/11/20 04:21:42;;;;;;;9.82;5.15;;;;;;;;;;4911960;29;20485;-83
2022/11/20 04:24:07;;;;;;;11.00;6.10;;;;;;;;;;4898088;29;20036;-83
2022/11/20 04:26:33;;;;;;;9.77;5.75;;;;;;;;;;4909536;29;20612;-83
2022/11/20 04:29:01;;;;;;;10.45;5.95;;;;;;;;;;4896577;29;20029;-83
2022/11/20 04:31:32;;;;;;;10.20;5.70;;;;;;;;;;4911047;29;20032;-83
2022/11/20 04:34:03;;;;;;;9.52;5.22;;;;;;;;;;4908196;29;20028;-83
2022/11/20 04:36:29;;;;;;;9.70;6.10;;;;;;;;;;4906979;29;20389;-83
2022/11/20 04:38:58;;;;;;;10.95;5.72;;;;;;;;;;4899247;29;20044;-83
2022/11/20 04:41:26;;;;;;;10.35;5.93;;;;;;;;;;4913084;29;20028;-83
2022/11/20 04:43:58;;;;;;;8.63;5.28;;;;;;;;;;4911798;29;20095;-83
2022/11/20 04:46:25;;;;;;;10.48;5.72;;;;;;;;;;4909970;29;20080;-83
2022/11/20 04:48:51;;;;;;;11.02;5.65;;;;;;;;;;4911921;29;20028;-83
2022/11/20 04:51:16;;;;;;;10.30;5.65;;;;;;;;;;4912934;29;20495;-83
2022/11/20 04:53:41;;;;;;;10.10;5.90;;;;;;;;;;4896339;29;20068;-83
2022/11/20 04:56:09;;;;;;;9.75;5.47;;;;;;;;;;4909960;29;20047;-83
2022/11/20 04:58:35;;;;;;;11.80;5.97;;;;;;;;;;4912986;29;20066;-83
2022/11/20 05:01:05;;;;;;;13.05;6.35;;;;;;;;;;4915132;29;20592;-83
2022/11/20 05:03:30;;;;;;;10.25;6.22;;;;;;;;;;4908972;29;20031;-83
2022/11/20 05:05:56;;;;;;;11.85;6.05;;;;;;;;;;4912854;29;20036;-83
2022/11/20 05:08:22;;;;;;;9.73;5.53;;;;;;;;;;4893010;29;20508;-83
2022/11/20 05:10:47;;;;;;;10.20;6.30;;;;;;;;;;4914678;29;20035;-83
2022/11/20 05:13:13;;;;;;;11.30;6.35;;;;;;;;;;4896650;29;20031;-83
2022/11/20 05:15:38;;;;;;;11.40;6.32;;;;;;;;;;4911412;29;20032;-83
2022/11/20 05:18:03;;;;;;;12.18;6.50;;;;;;;;;;4898168;29;20024;-83
2022/11/20 05:20:29;;;;;;;12.55;6.32;;;;;;;;;;4895435;29;20027;-83
2022/11/20 05:22:57;;;;;;;9.95;6.18;;;;;;;;;;4914056;29;20043;-83
2022/11/20 05:25:23;;;;;;;11.38;6.45;;;;;;;;;;4912652;29;20040;-83
2022/11/20 05:27:48;;;;;;;12.10;5.85;;;;;;;;;;4903826;29;20039;-83
2022/11/20 05:30:14;;;;;;;12.30;6.05;;;;;;;;;;4910278;29;20035;-83
2022/11/20 05:32:39;;;;;;;11.68;6.07;;;;;;;;;;4913678;29;20596;-83
2022/11/20 05:35:05;;;;;;;10.93;6.57;;;;;;;;;;4912589;29;20134;-83
2022/11/20 05:37:30;;;;;;;13.20;6.80;;;;;;;;;;4910232;29;20126;-83
2022/11/20 05:39:55;;;;;;;12.18;6.60;;;;;;;;;;4907362;29;20047;-83
2022/11/20 05:42:30;;;;;;;11.77;6.38;;;;;;;;;;4910008;29;20051;-83
2022/11/20 05:44:56;;;;;;;12.30;7.00;;;;;;;;;;4909361;29;20048;-84
2022/11/20 05:47:21;;;;;;;12.30;6.75;;;;;;;;;;4908802;29;20558;-83
2022/11/20 05:49:46;;;;;;;11.60;6.93;;;;;;;;;;4894810;29;20032;-84
2022/11/20 05:52:12;;;;;;;14.27;6.90;;;;;;;;;;4907829;29;20063;-83
2022/11/20 05:54:37;;;;;;;12.38;6.07;;;;;;;;;;4909128;29;20366;-84
2022/11/20 05:57:02;;;;;;;11.90;6.53;;;;;;;;;;4896766;29;20504;-84
2022/11/20 05:59:28;;;;;;;10.73;5.72;;;;;;;;;;4909641;29;20816;-84
2022/11/20 06:01:53;;;;;;;12.07;6.47;;;;;;;;;;4891145;29;20403;-84
2022/11/20 06:04:19;;;;;;;13.18;6.85;;;;;;;;;;4895923;29;20092;-84
2022/11/20 06:06:44;;;;;;;11.70;6.22;;;;;;;;;;4902517;29;20039;-84
2022/11/20 06:09:09;;;;;;;11.30;6.18;;;;;;;;;;4905747;29;20036;-84
2022/11/20 06:11:35;;;;;;;10.48;5.80;;;;;;;;;;4890813;29;20078;-84
2022/11/20 06:14:00;;;;;;;11.70;6.60;;;;;;;;;;4889499;29;20055;-84
2022/11/20 06:16:25;;;;;;;13.10;6.38;;;;;;;;;;4889194;29;21529;-84
2022/11/20 06:18:51;;;;;;;10.68;6.28;;;;;;;;;;4905502;29;20036;-84
2022/11/20 06:21:19;;;;;;;10.30;5.85;;;;;;;;;;4891295;29;20177;-84
2022/11/20 06:23:45;;;;;;;12.57;6.35;;;;;;;;;;4909903;29;20028;-84
2022/11/20 06:26:13;;;;;;;11.15;6.38;;;;;;;;;;4896649;29;20159;-84
2022/11/20 06:28:39;;;;;;;10.05;5.82;;;;;;;;;;4907805;29;20032;-84
2022/11/20 06:31:05;;;;;;;9.07;5.47;;;;;;;;;;4910485;29;20028;-84
2022/11/20 06:33:31;;;;;;;10.20;5.90;;;;;;;;;;4906583;29;20397;-85
2022/11/20 06:35:57;;;;;;;10.60;6.03;;;;;;;;;;4913674;29;20091;-84
2022/11/20 06:38:24;;;;;;;12.68;6.43;;;;;;;;;;4911337;29;20411;-84
2022/11/20 06:40:50;;;;;;;11.57;6.35;;;;;;;;;;4906285;29;20047;-84
2022/11/20 06:43:15;;;;;;;12.05;6.07;;;;;;;;;;4915582;29;20023;-84
2022/11/20 06:45:41;;;;;;;11.70;6.40;;;;;;;;;;4911590;29;20035;-84
2022/11/20 06:48:06;;;;;;;12.23;6.43;;;;;;;;;;4909921;29;20032;-84
2022/11/20 06:50:32;;;;;;;11.52;6.10;;;;;;;;;;4905476;29;20386;-84
2022/11/20 06:53:02;;;;;;;12.15;6.90;;;;;;;;;;4908043;29;20035;-84
2022/11/20 06:55:27;;;;;;;11.20;6.63;;;;;;;;;;4888702;29;20512;-84
2022/11/20 06:57:53;;;;;;;12.32;6.68;;;;;;;;;;4905982;29;20159;-86
2022/11/20 07:00:18;;;;;;;12.23;6.72;;;;;;;;;;4912847;29;20658;-85
2022/11/20 07:02:43;;;;;;;14.80;7.32;;;;;;;;;;4909125;29;20172;-85
2022/11/20 07:05:09;;;;;;;12.57;7.13;;;;;;;;;;4903835;29;20119;-85
2022/11/20 07:07:34;;;;;;;11.65;6.82;;;;;;;;;;4907753;29;20028;-85
2022/11/20 07:09:59;;;;;;;11.05;6.50;;;;;;;;;;4909806;29;20518;-85
2022/11/20 07:12:25;;;;;;;13.43;7.70;;;;;;;;;;4910872;29;20094;-85
2022/11/20 07:14:50;;;;;;;13.07;7.45;;;;;;;;;;4903408;29;20028;-85
2022/11/20 07:17:15;;;;;;;11.50;7.05;;;;;;;;;;4914442;29;20032;-85
2022/11/20 07:19:42;;;;;;;12.90;6.75;;;;;;;;;;4908261;29;20032;-85
2022/11/20 07:22:08;;;;;;;12.25;6.68;;;;;;;;;;4904537;29;20057;-84
2022/11/20 07:24:33;;;;;;;13.55;7.18;;;;;;;;;;4907001;29;20020;-85
2022/11/20 07:26:58;;;;;;;13.75;7.40;;;;;;;;;;4909841;29;20107;-85
2022/11/20 07:29:24;;;;;;;13.98;7.50;;;;;;;;;;4892637;29;20024;-85
2022/11/20 07:31:49;;;;;;;14.57;6.72;;;;;;;;;;4898685;29;20131;-84
2022/11/20 07:34:15;;;;;;;17.40;6.88;;;;;;;;;;4905958;29;20036;-85
2022/11/20 07:36:40;;;;;;;12.50;7.15;;;;;;;;;;4913151;29;20408;-85
2022/11/20 07:39:05;;;;;;;12.95;7.38;;;;;;;;;;4897558;29;20127;-85
2022/11/20 07:41:31;;;;;;;13.43;7.55;;;;;;;;;;4910209;29;20491;-85
2022/11/20 07:43:56;;;;;;;12.57;7.28;;;;;;;;;;4913169;29;20038;-84
2022/11/20 07:46:22;;;;;;;14.13;7.57;;;;;;;;;;4902115;29;20024;-84
2022/11/20 07:48:47;;;;;;;14.07;7.18;;;;;;;;;;4907575;29;20072;-85
2022/11/20 07:51:13;;;;;;;11.65;7.15;;;;;;;;;;4911690;29;20507;-85
2022/11/20 07:53:38;;;;;;;11.35;7.20;;;;;;;;;;4894623;29;20396;-85
2022/11/20 07:56:04;;;;;;;14.40;7.75;;;;;;;;;;4890749;29;20408;-84
2022/11/20 07:58:32;;;;;;;14.73;7.28;;;;;;;;;;4914502;29;20024;-85
2022/11/20 08:01:02;;;;;;;11.43;6.63;;;;;;;;;;4915299;29;20389;-85
2022/11/20 08:03:27;;;;;;;14.43;8.02;;;;;;;;;;4896904;29;20463;-85
2022/11/20 08:05:52;;;;;;;13.20;7.30;;;;;;;;;;4908483;29;20119;-85
2022/11/20 08:08:18;;;;;;;14.57;7.40;;;;;;;;;;4893545;29;20057;-85
2022/11/20 08:10:43;;;;;;;13.70;7.10;;;;;;;;;;4913601;29;20083;-85
2022/11/20 08:15:52;;;;;;;14.60;7.97;;;;;;;;;;4913524;29;20035;-84
2022/11/20 08:18:17;;;;;;;14.95;7.15;;;;;;;;;;4906896;29;20470;-85
2022/11/20 08:20:44;;;;;;;12.82;7.53;;;;;;;;;;4910612;29;21015;-85
2022/11/20 08:23:09;;;;;;;14.20;7.68;;;;;;;;;;4910012;29;21919;-85
2022/11/20 08:25:36;;;;;;;14.55;8.07;;;;;;;;;;4912357;29;20028;-85
2022/11/20 08:28:06;;;;;;;13.15;7.57;;;;;;;;;;4914946;29;20032;-85
2022/11/20 08:30:32;;;;;;;15.00;8.18;;;;;;;;;;4912978;29;20079;-85
2022/11/20 08:33:08;;;;;;;14.40;8.27;;;;;;;;;;4896357;29;20038;-85
2022/11/20 08:35:37;;;;;;;15.77;8.23;;;;;;;;;;4909470;29;20520;-85
2022/11/20 08:38:06;;;;;;;17.33;8.57;;;;;;;;;;4914557;29;20031;-85
2022/11/20 08:40:32;;;;;;;17.10;8.25;;;;;;;;;;4909290;29;20516;-84
2022/11/20 08:42:58;;;;;;;14.20;7.70;;;;;;;;;;4910373;29;20552;-84
2022/11/20 08:45:23;;;;;;;15.30;8.05;;;;;;;;;;4893594;29;20035;-84
2022/11/20 08:47:49;;;;;;;17.60;9.10;;;;;;;;;;4910577;29;20036;-84
2022/11/20 08:50:15;;;;;;;14.25;8.07;;;;;;;;;;4894867;29;20024;-84
2022/11/20 08:52:41;;;;;;;14.00;7.75;;;;;;;;;;4907097;29;20035;-84
2022/11/20 08:55:07;;;;;;;15.10;8.45;;;;;;;;;;4890074;29;20028;-84
2022/11/20 08:57:33;;;;;;;16.58;8.93;;;;;;;;;;4911440;29;20048;-85
2022/11/20 08:59:59;;;;;;;14.52;8.27;;;;;;;;;;4907819;29;20070;-84
2022/11/20 09:02:24;;;;;;;13.52;7.80;;;;;;;;;;4903893;29;20473;-84
2022/11/20 09:04:50;;;;;;;15.55;8.05;;;;;;;;;;4892228;29;20032;-84
2022/11/20 09:07:15;;;;;;;15.35;8.27;;;;;;;;;;4913490;29;20039;-84
2022/11/20 09:09:40;;;;;;;14.15;8.05;;;;;;;;;;4910369;29;20028;-84
2022/11/20 09:12:06;;;;;;;15.23;8.05;;;;;;;;;;4908545;29;20047;-83
2022/11/20 09:14:31;;;;;;;15.60;8.52;;;;;;;;;;4912188;29;20032;-85
2022/11/20 09:16:57;;;;;;;15.48;8.43;;;;;;;;;;4897759;29;20056;-83
2022/11/20 09:19:24;;;;;;;15.43;8.15;;;;;;;;;;4913447;29;20032;-84
2022/11/20 09:21:50;;;;;;;14.20;8.35;;;;;;;;;;4896264;29;20028;-84
2022/11/20 09:24:15;;;;;;;16.88;8.70;;;;;;;;;;4885922;29;20681;-84
2022/11/20 09:26:41;;;;;;;15.88;8.30;;;;;;;;;;4908006;29;20031;-85
2022/11/20 09:29:08;;;;;;;17.52;8.95;;;;;;;;;;4906207;29;20039;-85
2022/11/20 09:31:34;;;;;;;18.60;9.20;;;;;;;;;;4915586;29;20495;-84
2022/11/20 09:34:02;;;;;;;21.60;10.10;;;;;;;;;;4910959;29;20039;-84
2022/11/20 09:36:28;;;;;;;20.33;9.50;;;;;;;;;;4906771;29;20067;-83
2022/11/20 09:38:53;;;;;;;18.63;9.45;;;;;;;;;;4897737;29;20128;-84
2022/11/20 09:41:53;;;;;;;19.83;9.68;;;;;;;;;;4912731;29;20082;-84
2022/11/20 09:44:52;;;;;;;17.83;9.32;;;;;;;;;;4903403;29;20027;-84
2022/11/20 09:47:34;;;;;;;16.85;8.80;;;;;;;;;;4905197;29;20499;-84
2022/11/20 09:50:22;;;;;;;21.08;9.75;;;;;;;;;;4907808;29;20032;-84
2022/11/20 09:52:55;;;;;;;16.85;8.93;;;;;;;;;;4907646;29;20039;-84
2022/11/20 09:55:21;;;;;;;18.90;9.43;;;;;;;;;;4901963;29;20028;-84
2022/11/20 09:57:50;;;;;;;18.30;10.23;;;;;;;;;;4891510;29;20389;-84
2022/11/20 10:00:17;;;;;;;17.70;9.02;;;;;;;;;;4903131;29;20028;-84
2022/11/20 10:03:02;;;;;;;16.45;8.88;;;;;;;;;;4905760;29;20481;-85
2022/11/20 10:05:42;;;;;;;15.85;9.45;;;;;;;;;;4905250;29;20032;-84
2022/11/20 10:08:49;;;;;;;16.55;9.55;;;;;;;;;;4907781;29;20035;-82
2022/11/20 10:11:35;;;;;;;17.73;9.75;;;;;;;;;;4886056;29;20036;-83
2022/11/20 10:14:27;;;;;;;18.00;9.52;;;;;;;;;;4910506;29;20088;-83
2022/11/20 10:17:17;;;;;;;16.35;9.00;;;;;;;;;;4888846;29;20477;-82
2022/11/20 10:19:53;;;;;;;16.85;8.75;;;;;;;;;;4894075;29;20034;-83
2022/11/20 10:22:27;;;;;;;17.67;9.13;;;;;;;;;;4908731;29;20029;-82
2022/11/20 10:25:11;;;;;;;19.65;9.90;;;;;;;;;;4906248;29;21291;-83
2022/11/20 10:27:58;;;;;;;19.25;10.15;;;;;;;;;;4908001;29;20511;-82
2022/11/20 10:30:38;;;;;;;18.95;9.50;;;;;;;;;;4914367;29;21444;-82
2022/11/20 10:33:16;;;;;;;16.85;9.20;;;;;;;;;;4907254;29;20035;-82
2022/11/20 10:35:49;;;;;;;18.17;9.77;;;;;;;;;;4910873;29;20027;-83
2022/11/20 10:38:20;;;;;;;18.92;10.02;;;;;;;;;;4908129;29;20024;-82
2022/11/20 10:41:00;;;;;;;19.88;10.57;;;;;;;;;;4930454;29;20071;-82
2022/11/20 10:43:36;;;;;;;19.38;9.80;;;;;;;;;;4920689;29;20045;-82
2022/11/20 10:46:12;;;;;;;19.10;9.15;;;;;;;;;;4902835;29;20081;-82
2022/11/20 10:48:39;;;;;;;18.35;9.60;;;;;;;;;;4927739;29;20063;-82
2022/11/20 10:51:11;;;;;;;17.17;9.82;;;;;;;;;;4930450;29;20036;-81
2022/11/20 10:53:46;;;;;;;17.25;9.05;;;;;;;;;;4932673;29;20028;-83
2022/11/20 10:56:24;;;;;;;19.27;9.95;;;;;;;;;;4906959;29;20088;-80
2022/11/20 10:59:04;;;;;;;18.85;9.27;;;;;;;;;;4912021;29;20082;-83
2022/11/20 11:01:41;;;;;;;19.27;9.80;;;;;;;;;;4893161;29;20024;-83
2022/11/20 11:04:23;;;;;;;17.85;10.10;;;;;;;;;;4888518;29;20040;-83
2022/11/20 11:06:49;;;;;;;18.70;10.23;;;;;;;;;;4907698;29;20028;-83
2022/11/20 11:09:26;;;;;;;20.45;10.15;;;;;;;;;;4902994;29;20123;-83
2022/11/20 11:11:51;;;;;;;26.98;11.35;;;;;;;;;;4907818;29;20035;-83
2022/11/20 11:14:20;;;;;;;22.38;10.70;;;;;;;;;;4909716;29;20381;-83
2022/11/20 11:16:51;;;;;;;22.42;10.80;;;;;;;;;;4904476;29;20040;-83
2022/11/20 11:19:16;;;;;;;21.80;10.95;;;;;;;;;;4904277;29;20504;-83
2022/11/20 11:21:52;;;;;;;23.95;11.90;;;;;;;;;;4905168;29;20111;-83
2022/11/20 11:24:24;;;;;;;26.10;10.95;;;;;;;;;;4909520;29;20024;-82
2022/11/20 11:27:06;;;;;;;21.98;11.55;;;;;;;;;;4904205;29;20050;-83
2022/11/20 11:29:32;;;;;;;22.75;11.55;;;;;;;;;;4909338;29;20043;-83
2022/11/20 11:32:12;;;;;;;22.85;11.18;;;;;;;;;;4894048;29;20389;-83
2022/11/20 11:34:37;;;;;;;23.65;11.13;;;;;;;;;;4912583;29;20094;-83
2022/11/20 11:37:04;;;;;;;25.10;11.68;;;;;;;;;;4911217;29;20438;-83
2022/11/20 11:39:32;;;;;;;27.02;11.95;;;;;;;;;;4914684;29;20520;-83
2022/11/20 11:42:00;;;;;;;23.42;11.60;;;;;;;;;;4909059;29;20046;-83
2022/11/20 11:47:21;;;;;;;29.25;13.07;;;;;;;;;;4906617;29;20042;-83
2022/11/20 11:49:46;;;;;;;25.63;11.88;;;;;;;;;;4909736;29;20028;-83
2022/11/20 11:52:18;;;;;;;27.35;12.95;;;;;;;;;;4909039;29;20039;-83
2022/11/20 11:54:47;;;;;;;25.83;11.85;;;;;;;;;;4903686;29;20036;-83
2022/11/20 11:57:34;;;;;;;23.52;11.75;;;;;;;;;;4905634;29;20581;-83
2022/11/20 12:00:20;;;;;;;21.25;10.82;;;;;;;;;;4913143;29;20032;-83
2022/11/20 12:02:45;;;;;;;21.55;10.77;;;;;;;;;;4896410;29;20040;-83
2022/11/20 12:05:26;;;;;;;24.38;11.48;;;;;;;;;;4908184;29;20032;-83
2022/11/20 12:07:58;;;;;;;24.83;11.18;;;;;;;;;;4904630;29;20602;-83
2022/11/20 12:10:41;;;;;;;23.88;11.75;;;;;;;;;;4897621;29;20035;-83
2022/11/20 12:13:28;;;;;;;22.70;11.57;;;;;;;;;;4913628;29;20511;-83
2022/11/20 12:15:53;;;;;;;24.95;12.15;;;;;;;;;;4907667;29;20453;-83
2022/11/20 12:18:22;;;;;;;19.30;10.70;;;;;;;;;;4914436;29;20024;-82
2022/11/20 12:21:22;;;;;;;20.65;10.65;;;;;;;;;;4912326;29;20062;-82
2022/11/20 12:24:25;;;;;;;23.55;11.40;;;;;;;;;;4909014;29;20390;-83
2022/11/20 12:27:05;;;;;;;23.65;11.40;;;;;;;;;;4907782;29;20066;-83
2022/11/20 12:29:56;;;;;;;22.67;11.45;;;;;;;;;;4908493;29;20028;-82
2022/11/20 12:32:21;;;;;;;23.23;11.75;;;;;;;;;;4909830;29;20031;-83
2022/11/20 12:35:12;;;;;;;26.10;11.75;;;;;;;;;;4907167;29;20043;-83
2022/11/20 12:38:18;;;;;;;22.45;12.38;;;;;;;;;;4908551;29;20023;-82
2022/11/20 12:41:13;;;;;;;21.73;11.35;;;;;;;;;;4908293;29;20051;-83
2022/11/20 12:47:02;;;;;;;24.63;13.23;;;;;;;;;;4909002;29;20397;-83
2022/11/20 12:49:39;;;;;;;25.63;12.70;;;;;;;;;;4911714;29;20028;-83
2022/11/20 12:52:25;;;;;;;25.70;13.25;;;;;;;;;;4911521;29;20477;-84
2022/11/20 12:55:15;;;;;;;26.52;13.23;;;;;;;;;;4915227;29;20028;-83
2022/11/20 12:57:53;;;;;;;23.63;12.75;;;;;;;;;;4908995;29;20034;-83
2022/11/20 13:00:21;;;;;;;29.45;13.60;;;;;;;;;;4912524;29;20606;-83
2022/11/20 13:03:20;;;;;;;26.80;13.15;;;;;;;;;;4911793;29;20091;-83
2022/11/20 13:06:01;;;;;;;22.30;12.10;;;;;;;;;;4909994;29;20481;-83
2022/11/20 13:08:32;;;;;;;25.77;12.02;;;;;;;;;;4913820;29;20028;-83
2022/11/20 13:11:15;;;;;;;22.92;12.02;;;;;;;;;;4911828;29;20039;-83
2022/11/20 13:14:13;;;;;;;25.17;12.52;;;;;;;;;;4898999;29;20040;-83
2022/11/20 13:17:02;;;;;;;29.17;12.90;;;;;;;;;;4893672;29;20028;-83
2022/11/20 13:19:29;;;;;;;26.48;11.38;;;;;;;;;;4911705;29;20028;-83
2022/11/20 13:21:54;;;;;;;29.90;13.68;;;;;;;;;;4893405;29;20184;-82
2022/11/20 13:24:22;;;;;;;27.40;13.32;;;;;;;;;;4907533;29;20115;-83
2022/11/20 13:27:08;;;;;;;26.45;13.38;;;;;;;;;;4909201;29;20028;-82
2022/11/20 13:29:36;;;;;;;28.05;13.05;;;;;;;;;;4884645;29;20099;-83
2022/11/20 13:32:19;;;;;;;28.55;13.48;;;;;;;;;;4909527;29;20024;-83
2022/11/20 13:35:02;;;;;;;30.85;14.05;;;;;;;;;;4907066;29;20481;-83
2022/11/20 13:37:37;;;;;;;27.27;14.17;;;;;;;;;;4910094;29;20115;-84
2022/11/20 13:40:10;;;;;;;27.02;13.32;;;;;;;;;;4909994;29;20287;-84
2022/11/20 13:42:45;;;;;;;34.80;15.97;;;;;;;;;;4906277;29;20124;-84
2022/11/20 13:45:26;;;;;;;32.13;15.05;;;;;;;;;;4905097;29;20029;-83
2022/11/20 13:47:52;;;;;;;31.20;14.88;;;;;;;;;;4907103;29;20059;-83
2022/11/20 13:50:18;;;;;;;28.58;14.57;;;;;;;;;;4909119;29;20150;-83
2022/11/20 13:52:58;;;;;;;29.77;14.20;;;;;;;;;;4909893;29;20067;-82
2022/11/20 13:55:46;;;;;;;30.35;14.88;;;;;;;;;;4907635;29;20511;-83
2022/11/20 13:59:05;;;;;;;34.78;15.48;;;;;;;;;;4905108;29;20028;-83
2022/11/20 14:01:34;;;;;;;31.67;13.25;;;;;;;;;;4888018;29;20051;-82
2022/11/20 14:04:06;;;;;;;28.90;13.93;;;;;;;;;;4909884;29;20040;-82
2022/11/20 14:06:38;;;;;;;30.05;14.40;;;;;;;;;;4908814;29;20055;-82
2022/11/20 14:09:05;;;;;;;28.35;13.07;;;;;;;;;;4904430;29;20029;-82
2022/11/20 14:11:31;;;;;;;26.00;12.98;;;;;;;;;;4907978;29;20746;-83
2022/11/20 14:14:30;;;;;;;35.75;14.38;;;;;;;;;;4904847;29;20082;-83
2022/11/20 14:17:25;;;;;;;27.55;13.48;;;;;;;;;;4874261;29;20036;-82
2022/11/20 14:19:55;;;;;;;31.70;13.75;;;;;;;;;;4903515;29;20379;-83
2022/11/20 14:22:49;;;;;;;35.08;13.77;;;;;;;;;;5048913;28;20397;-82
2022/11/20 14:25:15;;;;;;;32.55;14.73;;;;;;;;;;5031014;28;20025;-82
2022/11/20 14:27:51;;;;;;;29.58;13.40;;;;;;;;;;5017537;28;20752;-83
2022/11/20 14:30:22;;;;;;;30.63;13.73;;;;;;;;;;5012624;28;20120;-82
2022/11/20 14:32:48;;;;;;;30.83;13.25;;;;;;;;;;5017320;28;20028;-83
2022/11/20 14:35:43;;;;;;;35.40;13.57;;;;;;;;;;5033448;28;20072;-81
2022/11/20 14:38:13;;;;;;;33.25;14.95;;;;;;;;;;5007794;28;20616;-82
2022/11/20 14:40:41;;;;;;;34.33;14.10;;;;;;;;;;5011196;28;20029;-82
2022/11/20 14:43:29;;;;;;;28.50;12.88;;;;;;;;;;5009043;28;20513;-82
2022/11/20 14:46:00;;;;;;;32.67;14.07;;;;;;;;;;5013895;28;20025;-81
2022/11/20 14:48:38;;;;;;;35.65;14.07;;;;;;;;;;5029711;28;20026;-81
2022/11/20 14:51:03;;;;;;;34.80;13.85;;;;;;;;;;5018473;28;20453;-81
2022/11/20 14:53:28;;;;;;;35.88;14.90;;;;;;;;;;5016833;28;20033;-82
2022/11/20 14:55:59;;;;;;;35.47;14.48;;;;;;;;;;5012114;28;20033;-82
2022/11/20 14:58:28;;;;;;;32.22;13.98;;;;;;;;;;5013180;28;20040;-82